sensor_id;sensor_type;location;lat;lon;timestamp;pressure;altitude;pressure_sealevel;temperature;humidity
12624;BME280;6377;42.836;23.998;2023-06-24T00:00:45;95632.25;;;23.09;100.00
12624;BME280;6377;42.836;23.998;2023-06-24T00:03:12;95630.53;;;22.98;100.00
12624;BME280;6377;42.836;23.998;2023-06-24T00:05:42;95620.94;;;22.80;100.00
12624;BME280;6377;42.836;23.998;2023-06-24T00:08:15;95604.53;;;22.60;100.00
12624;BME280;6377;42.836;23.998;2023-06-24T00:10:45;95641.47;;;22.86;100.00
12624;BME280;6377;42.836;23.998;2023-06-24T00:13:13;95640.13;;;22.83;100.00
12624;BME280;6377;42.836;23.998;2023-06-24T00:15:42;95633.84;;;22.78;100.00
12624;BME280;6377;42.836;23.998;2023-06-24T00:18:09;95623.59;;;22.75;100.00
12624;BME280;6377;42.836;23.998;2023-06-24T00:20:37;95634.97;;;22.82;100.00
12624;BME280;6377;42.836;23.998;2023-06-24T00:23:05;95629.53;;;22.77;100.00
12624;BME280;6377;42.836;23.998;2023-06-24T00:25:32;95626.56;;;22.78;100.00
12624;BME280;6377;42.836;23.998;2023-06-24T00:28:00;95620.41;;;22.83;100.00
12624;BME280;6377;42.836;23.998;2023-06-24T00:30:27;95618.81;;;22.87;100.00
12624;BME280;6377;42.836;23.998;2023-06-24T00:32:56;95596.31;;;22.71;100.00
12624;BME280;6377;42.836;23.998;2023-06-24T00:35:23;95616.00;;;22.72;100.00
12624;BME280;6377;42.836;23.998;2023-06-24T00:37:50;95613.63;;;22.54;100.00
12624;BME280;6377;42.836;23.998;2023-06-24T00:40:23;95591.25;;;22.26;100.00
12624;BME280;6377;42.836;23.998;2023-06-24T00:42:51;95620.63;;;22.55;100.00
12624;BME280;6377;42.836;23.998;2023-06-24T00:45:18;95622.72;;;22.48;100.00
12624;BME280;6377;42.836;23.998;2023-06-24T00:47:45;95618.41;;;22.47;100.00
12624;BME280;6377;42.836;23.998;2023-06-24T00:50:15;95610.06;;;22.48;100.00
12624;BME280;6377;42.836;23.998;2023-06-24T00:52:42;95597.59;;;22.42;100.00
12624;BME280;6377;42.836;23.998;2023-06-24T00:55:10;95616.22;;;22.44;100.00
12624;BME280;6377;42.836;23.998;2023-06-24T00:57:39;95618.03;;;22.38;100.00
12624;BME280;6377;42.836;23.998;2023-06-24T01:00:07;95622.56;;;22.32;100.00
12624;BME280;6377;42.836;23.998;2023-06-24T01:02:39;95622.38;;;22.39;100.00
12624;BME280;6377;42.836;23.998;2023-06-24T01:05:08;95591.59;;;22.35;100.00
12624;BME280;6377;42.836;23.998;2023-06-24T01:07:38;95603.81;;;22.43;100.00
12624;BME280;6377;42.836;23.998;2023-06-24T01:10:07;95619.38;;;22.36;100.00
12624;BME280;6377;42.836;23.998;2023-06-24T01:12:36;95616.84;;;22.29;100.00
12624;BME280;6377;42.836;23.998;2023-06-24T01:15:05;95618.31;;;22.37;100.00
12624;BME280;6377;42.836;23.998;2023-06-24T01:17:36;95605.97;;;22.46;100.00
12624;BME280;6377;42.836;23.998;2023-06-24T01:20:08;95578.16;;;22.13;100.00
12624;BME280;6377;42.836;23.998;2023-06-24T01:23:06;95604.88;;;22.42;100.00
12624;BME280;6377;42.836;23.998;2023-06-24T01:25:54;95609.09;;;22.32;100.00
12624;BME280;6377;42.836;23.998;2023-06-24T01:28:37;95617.53;;;22.19;100.00
12624;BME280;6377;42.836;23.998;2023-06-24T01:31:34;95623.69;;;21.93;100.00
12624;BME280;6377;42.836;23.998;2023-06-24T01:34:08;95625.66;;;21.59;100.00
12624;BME280;6377;42.836;23.998;2023-06-24T01:36:38;95618.28;;;21.55;100.00
12624;BME280;6377;42.836;23.998;2023-06-24T01:39:09;95618.50;;;21.48;100.00
12624;BME280;6377;42.836;23.998;2023-06-24T01:41:40;95602.19;;;21.38;100.00
12624;BME280;6377;42.836;23.998;2023-06-24T01:44:13;95610.69;;;21.68;100.00
12624;BME280;6377;42.836;23.998;2023-06-24T01:46:46;95615.41;;;21.78;100.00
12624;BME280;6377;42.836;23.998;2023-06-24T01:49:16;95614.66;;;21.83;100.00
12624;BME280;6377;42.836;23.998;2023-06-24T01:51:45;95595.31;;;21.86;100.00
12624;BME280;6377;42.836;23.998;2023-06-24T01:54:15;95613.38;;;22.07;100.00
12624;BME280;6377;42.836;23.998;2023-06-24T01:56:45;95613.25;;;22.18;100.00
12624;BME280;6377;42.836;23.998;2023-06-24T01:59:17;95599.41;;;22.10;100.00
12624;BME280;6377;42.836;23.998;2023-06-24T02:01:45;95601.16;;;22.21;100.00
12624;BME280;6377;42.836;23.998;2023-06-24T02:04:13;95605.41;;;22.17;100.00
12624;BME280;6377;42.836;23.998;2023-06-24T02:06:43;95594.84;;;22.10;100.00
12624;BME280;6377;42.836;23.998;2023-06-24T02:09:11;95602.00;;;22.26;100.00
12624;BME280;6377;42.836;23.998;2023-06-24T02:11:39;95616.66;;;22.36;100.00
12624;BME280;6377;42.836;23.998;2023-06-24T02:14:08;95608.66;;;22.46;100.00
12624;BME280;6377;42.836;23.998;2023-06-24T02:16:38;95609.13;;;22.38;100.00
12624;BME280;6377;42.836;23.998;2023-06-24T02:19:10;95610.28;;;22.42;100.00
12624;BME280;6377;42.836;23.998;2023-06-24T02:21:39;95610.09;;;22.26;100.00
12624;BME280;6377;42.836;23.998;2023-06-24T02:24:08;95600.22;;;22.10;100.00
12624;BME280;6377;42.836;23.998;2023-06-24T02:26:36;95613.19;;;21.92;100.00
12624;BME280;6377;42.836;23.998;2023-06-24T02:29:08;95559.63;;;21.35;100.00
12624;BME280;6377;42.836;23.998;2023-06-24T02:31:36;95600.53;;;21.75;100.00
12624;BME280;6377;42.836;23.998;2023-06-24T02:34:03;95609.75;;;21.79;100.00
12624;BME280;6377;42.836;23.998;2023-06-24T02:36:32;95597.41;;;21.62;100.00
12624;BME280;6377;42.836;23.998;2023-06-24T02:38:59;95598.19;;;21.41;100.00
12624;BME280;6377;42.836;23.998;2023-06-24T02:41:26;95594.38;;;21.37;100.00
12624;BME280;6377;42.836;23.998;2023-06-24T02:43:53;95606.69;;;21.33;100.00
12624;BME280;6377;42.836;23.998;2023-06-24T02:46:21;95611.16;;;21.44;100.00
12624;BME280;6377;42.836;23.998;2023-06-24T02:48:49;95611.78;;;21.51;100.00
12624;BME280;6377;42.836;23.998;2023-06-24T02:51:18;95623.78;;;21.60;100.00
12624;BME280;6377;42.836;23.998;2023-06-24T02:53:47;95605.16;;;21.58;100.00
12624;BME280;6377;42.836;23.998;2023-06-24T02:56:17;95629.94;;;21.77;100.00
12624;BME280;6377;42.836;23.998;2023-06-24T02:58:46;95626.34;;;21.71;100.00
12624;BME280;6377;42.836;23.998;2023-06-24T03:01:14;95637.25;;;21.82;100.00
12624;BME280;6377;42.836;23.998;2023-06-24T03:03:42;95644.34;;;21.88;100.00
12624;BME280;6377;42.836;23.998;2023-06-24T03:06:14;95648.59;;;21.84;100.00
12624;BME280;6377;42.836;23.998;2023-06-24T03:08:43;95640.44;;;21.78;100.00
12624;BME280;6377;42.836;23.998;2023-06-24T03:11:13;95653.91;;;21.95;100.00
12624;BME280;6377;42.836;23.998;2023-06-24T03:13:41;95659.78;;;21.92;100.00
12624;BME280;6377;42.836;23.998;2023-06-24T03:16:09;95657.09;;;21.92;100.00
12624;BME280;6377;42.836;23.998;2023-06-24T03:18:38;95663.53;;;21.91;100.00
12624;BME280;6377;42.836;23.998;2023-06-24T03:21:05;95668.69;;;21.93;100.00
12624;BME280;6377;42.836;23.998;2023-06-24T03:23:33;95668.38;;;21.89;100.00
12624;BME280;6377;42.836;23.998;2023-06-24T03:26:00;95670.44;;;21.87;100.00
12624;BME280;6377;42.836;23.998;2023-06-24T03:28:30;95678.44;;;21.99;100.00
12624;BME280;6377;42.836;23.998;2023-06-24T03:30:57;95680.44;;;22.08;100.00
12624;BME280;6377;42.836;23.998;2023-06-24T03:33:25;95685.03;;;22.08;100.00
12624;BME280;6377;42.836;23.998;2023-06-24T03:35:53;95642.34;;;21.78;100.00
12624;BME280;6377;42.836;23.998;2023-06-24T03:38:20;95692.75;;;22.21;100.00
12624;BME280;6377;42.836;23.998;2023-06-24T03:40:48;95690.00;;;22.16;100.00
12624;BME280;6377;42.836;23.998;2023-06-24T03:43:15;95693.75;;;22.15;100.00
12624;BME280;6377;42.836;23.998;2023-06-24T03:45:43;95690.09;;;22.26;100.00
12624;BME280;6377;42.836;23.998;2023-06-24T03:48:10;95701.53;;;22.33;100.00
12624;BME280;6377;42.836;23.998;2023-06-24T03:50:37;95698.34;;;22.36;100.00
12624;BME280;6377;42.836;23.998;2023-06-24T03:53:05;95697.31;;;22.42;100.00
12624;BME280;6377;42.836;23.998;2023-06-24T03:55:32;95700.22;;;22.36;100.00
12624;BME280;6377;42.836;23.998;2023-06-24T03:57:59;95701.66;;;22.21;100.00
12624;BME280;6377;42.836;23.998;2023-06-24T04:00:26;95718.00;;;22.15;100.00
12624;BME280;6377;42.836;23.998;2023-06-24T04:02:55;95679.94;;;21.90;100.00
12624;BME280;6377;42.836;23.998;2023-06-24T04:05:22;95691.09;;;21.98;100.00
12624;BME280;6377;42.836;23.998;2023-06-24T04:07:51;95716.19;;;22.20;100.00
12624;BME280;6377;42.836;23.998;2023-06-24T04:10:19;95716.19;;;22.20;100.00
12624;BME280;6377;42.836;23.998;2023-06-24T04:12:46;95718.53;;;22.17;100.00
12624;BME280;6377;42.836;23.998;2023-06-24T04:15:13;95714.75;;;22.13;100.00
12624;BME280;6377;42.836;23.998;2023-06-24T04:17:40;95715.91;;;22.00;100.00
12624;BME280;6377;42.836;23.998;2023-06-24T04:20:09;95709.38;;;21.96;100.00
12624;BME280;6377;42.836;23.998;2023-06-24T04:22:37;95699.25;;;22.03;100.00
12624;BME280;6377;42.836;23.998;2023-06-24T04:25:05;95716.34;;;22.14;100.00
12624;BME280;6377;42.836;23.998;2023-06-24T04:27:32;95695.34;;;21.94;100.00
12624;BME280;6377;42.836;23.998;2023-06-24T04:30:00;95713.59;;;22.09;100.00
12624;BME280;6377;42.836;23.998;2023-06-24T04:32:27;95723.00;;;22.06;100.00
12624;BME280;6377;42.836;23.998;2023-06-24T04:34:54;95724.53;;;22.02;100.00
12624;BME280;6377;42.836;23.998;2023-06-24T04:37:23;95723.31;;;22.10;100.00
12624;BME280;6377;42.836;23.998;2023-06-24T04:39:50;95718.16;;;22.08;100.00
12624;BME280;6377;42.836;23.998;2023-06-24T04:42:17;95716.56;;;22.07;100.00
12624;BME280;6377;42.836;23.998;2023-06-24T04:44:44;95718.31;;;22.18;100.00
12624;BME280;6377;42.836;23.998;2023-06-24T04:47:11;95690.34;;;22.03;100.00
12624;BME280;6377;42.836;23.998;2023-06-24T04:49:39;95717.31;;;22.24;100.00
12624;BME280;6377;42.836;23.998;2023-06-24T04:52:07;95712.25;;;22.28;100.00
12624;BME280;6377;42.836;23.998;2023-06-24T04:54:35;95710.97;;;22.36;100.00
12624;BME280;6377;42.836;23.998;2023-06-24T04:57:05;95708.28;;;22.36;100.00
12624;BME280;6377;42.836;23.998;2023-06-24T04:59:33;95701.06;;;22.41;100.00
12624;BME280;6377;42.836;23.998;2023-06-24T05:02:01;95703.81;;;22.46;100.00
12624;BME280;6377;42.836;23.998;2023-06-24T05:04:29;95703.81;;;22.46;100.00
12624;BME280;6377;42.836;23.998;2023-06-24T05:06:56;95706.22;;;22.43;100.00
12624;BME280;6377;42.836;23.998;2023-06-24T05:09:23;95708.59;;;22.39;100.00
12624;BME280;6377;42.836;23.998;2023-06-24T05:11:51;95710.84;;;22.47;100.00
12624;BME280;6377;42.836;23.998;2023-06-24T05:14:18;95705.88;;;22.61;100.00
12624;BME280;6377;42.836;23.998;2023-06-24T05:16:46;95712.03;;;22.78;100.00
12624;BME280;6377;42.836;23.998;2023-06-24T05:19:13;95716.53;;;22.94;100.00
12624;BME280;6377;42.836;23.998;2023-06-24T05:21:41;95709.41;;;23.10;100.00
12624;BME280;6377;42.836;23.998;2023-06-24T05:24:09;95687.75;;;23.05;100.00
12624;BME280;6377;42.836;23.998;2023-06-24T05:26:36;95705.53;;;23.27;100.00
12624;BME280;6377;42.836;23.998;2023-06-24T05:29:04;95703.50;;;23.39;100.00
12624;BME280;6377;42.836;23.998;2023-06-24T05:31:31;95701.09;;;23.43;100.00
12624;BME280;6377;42.836;23.998;2023-06-24T05:33:58;95697.88;;;23.46;100.00
12624;BME280;6377;42.836;23.998;2023-06-24T05:36:26;95698.72;;;23.52;100.00
12624;BME280;6377;42.836;23.998;2023-06-24T05:38:53;95687.94;;;23.52;100.00
12624;BME280;6377;42.836;23.998;2023-06-24T05:41:20;95697.81;;;23.73;100.00
12624;BME280;6377;42.836;23.998;2023-06-24T05:43:47;95697.28;;;23.76;100.00
12624;BME280;6377;42.836;23.998;2023-06-24T05:46:16;95701.41;;;23.83;100.00
12624;BME280;6377;42.836;23.998;2023-06-24T05:48:43;95691.38;;;23.79;100.00
12624;BME280;6377;42.836;23.998;2023-06-24T05:51:10;95698.97;;;23.87;100.00
12624;BME280;6377;42.836;23.998;2023-06-24T05:53:38;95687.31;;;23.81;100.00
12624;BME280;6377;42.836;23.998;2023-06-24T05:56:05;95696.94;;;24.04;100.00
12624;BME280;6377;42.836;23.998;2023-06-24T05:58:32;95689.19;;;24.13;100.00
12624;BME280;6377;42.836;23.998;2023-06-24T06:00:59;95689.22;;;24.23;100.00
12624;BME280;6377;42.836;23.998;2023-06-24T06:03:28;95690.06;;;24.28;100.00
12624;BME280;6377;42.836;23.998;2023-06-24T06:05:55;95685.47;;;24.34;100.00
12624;BME280;6377;42.836;23.998;2023-06-24T06:08:23;95692.81;;;24.38;100.00
12624;BME280;6377;42.836;23.998;2023-06-24T06:10:50;95687.97;;;24.45;100.00
12624;BME280;6377;42.836;23.998;2023-06-24T06:13:17;95686.94;;;24.62;100.00
12624;BME280;6377;42.836;23.998;2023-06-24T06:15:44;95676.44;;;24.70;100.00
12624;BME280;6377;42.836;23.998;2023-06-24T06:18:12;95683.19;;;24.78;100.00
12624;BME280;6377;42.836;23.998;2023-06-24T06:20:40;95685.44;;;24.91;96.87
12624;BME280;6377;42.836;23.998;2023-06-24T06:23:07;95682.47;;;25.02;93.34
12624;BME280;6377;42.836;23.998;2023-06-24T06:25:35;95689.53;;;25.08;89.09
12624;BME280;6377;42.836;23.998;2023-06-24T06:28:03;95686.03;;;25.18;91.43
12624;BME280;6377;42.836;23.998;2023-06-24T06:30:30;95671.94;;;25.36;88.71
12624;BME280;6377;42.836;23.998;2023-06-24T06:32:57;95680.59;;;25.43;82.70
12624;BME280;6377;42.836;23.998;2023-06-24T06:35:25;95679.00;;;25.52;84.61
12624;BME280;6377;42.836;23.998;2023-06-24T06:37:53;95685.25;;;25.58;80.37
12624;BME280;6377;42.836;23.998;2023-06-24T06:40:21;95679.00;;;25.73;82.44
12624;BME280;6377;42.836;23.998;2023-06-24T06:42:48;95685.47;;;25.87;76.67
12624;BME280;6377;42.836;23.998;2023-06-24T06:45:15;95678.66;;;26.04;80.82
12624;BME280;6377;42.836;23.998;2023-06-24T06:47:43;95684.06;;;26.20;76.41
12624;BME280;6377;42.836;23.998;2023-06-24T06:50:10;95686.22;;;26.28;77.31
12624;BME280;6377;42.836;23.998;2023-06-24T06:52:37;95680.00;;;26.27;75.41
12624;BME280;6377;42.836;23.998;2023-06-24T06:55:07;95660.47;;;26.30;76.83
12624;BME280;6377;42.836;23.998;2023-06-24T06:57:34;95679.34;;;26.55;72.36
12624;BME280;6377;42.836;23.998;2023-06-24T07:00:01;95682.25;;;26.69;69.89
12624;BME280;6377;42.836;23.998;2023-06-24T07:02:29;95682.47;;;26.78;69.87
12624;BME280;6377;42.836;23.998;2023-06-24T07:04:56;95682.97;;;26.90;64.83
12624;BME280;6377;42.836;23.998;2023-06-24T07:07:24;95682.94;;;27.00;66.38
12624;BME280;6377;42.836;23.998;2023-06-24T07:09:51;95684.78;;;27.09;65.07
12624;BME280;6377;42.836;23.998;2023-06-24T07:12:20;95656.81;;;27.04;63.08
12624;BME280;6377;42.836;23.998;2023-06-24T07:14:49;95688.69;;;27.32;62.02
12624;BME280;6377;42.836;23.998;2023-06-24T07:17:16;95684.00;;;27.43;63.77
12624;BME280;6377;42.836;23.998;2023-06-24T07:19:44;95686.03;;;27.61;62.35
12624;BME280;6377;42.836;23.998;2023-06-24T07:22:11;95687.00;;;27.75;61.39
12624;BME280;6377;42.836;23.998;2023-06-24T07:24:38;95688.63;;;27.76;60.72
12624;BME280;6377;42.836;23.998;2023-06-24T07:27:06;95685.28;;;27.84;57.98
12624;BME280;6377;42.836;23.998;2023-06-24T07:29:35;95683.25;;;27.95;58.57
12624;BME280;6377;42.836;23.998;2023-06-24T07:32:02;95685.94;;;28.00;59.79
12624;BME280;6377;42.836;23.998;2023-06-24T07:34:30;95691.53;;;28.13;61.03
12624;BME280;6377;42.836;23.998;2023-06-24T07:36:57;95692.25;;;28.24;61.86
12624;BME280;6377;42.836;23.998;2023-06-24T07:39:24;95691.72;;;28.22;62.28
12624;BME280;6377;42.836;23.998;2023-06-24T07:41:51;95685.88;;;28.33;63.54
12624;BME280;6377;42.836;23.998;2023-06-24T07:44:19;95685.88;;;28.33;65.45
12624;BME280;6377;42.836;23.998;2023-06-24T07:46:48;95679.69;;;28.28;64.49
12624;BME280;6377;42.836;23.998;2023-06-24T07:49:16;95681.38;;;28.24;65.46
12624;BME280;6377;42.836;23.998;2023-06-24T07:51:44;95684.53;;;28.31;64.76
12624;BME280;6377;42.836;23.998;2023-06-24T07:54:11;95684.38;;;28.22;65.00
12624;BME280;6377;42.836;23.998;2023-06-24T07:56:38;95682.06;;;28.34;65.23
12624;BME280;6377;42.836;23.998;2023-06-24T07:59:06;95688.34;;;28.54;64.81
12624;BME280;6377;42.836;23.998;2023-06-24T08:01:33;95681.66;;;28.70;64.92
12624;BME280;6377;42.836;23.998;2023-06-24T08:04:01;95678.78;;;28.80;62.25
12624;BME280;6377;42.836;23.998;2023-06-24T08:06:28;95685.75;;;28.91;60.85
12624;BME280;6377;42.836;23.998;2023-06-24T08:08:56;95682.56;;;28.84;60.54
12624;BME280;6377;42.836;23.998;2023-06-24T08:11:23;95685.94;;;28.95;61.26
12624;BME280;6377;42.836;23.998;2023-06-24T08:13:50;95679.28;;;29.06;60.39
12624;BME280;6377;42.836;23.998;2023-06-24T08:16:17;95684.28;;;29.17;59.35
12624;BME280;6377;42.836;23.998;2023-06-24T08:18:46;95674.38;;;29.21;58.40
12624;BME280;6377;42.836;23.998;2023-06-24T08:21:14;95685.63;;;29.38;57.43
12624;BME280;6377;42.836;23.998;2023-06-24T08:23:42;95691.81;;;29.44;55.48
12624;BME280;6377;42.836;23.998;2023-06-24T08:26:09;95692.59;;;29.44;55.33
12624;BME280;6377;42.836;23.998;2023-06-24T08:28:36;95697.81;;;29.60;54.54
12624;BME280;6377;42.836;23.998;2023-06-24T08:31:03;95691.97;;;29.66;54.01
12624;BME280;6377;42.836;23.998;2023-06-24T08:33:30;95687.16;;;29.77;54.93
12624;BME280;6377;42.836;23.998;2023-06-24T08:35:58;95691.44;;;29.83;54.03
12624;BME280;6377;42.836;23.998;2023-06-24T08:38:27;95689.25;;;29.85;53.51
12624;BME280;6377;42.836;23.998;2023-06-24T08:40:54;95692.38;;;29.92;53.95
12624;BME280;6377;42.836;23.998;2023-06-24T08:43:23;95688.22;;;29.94;54.48
12624;BME280;6377;42.836;23.998;2023-06-24T08:45:50;95670.66;;;29.87;53.87
12624;BME280;6377;42.836;23.998;2023-06-24T08:48:18;95684.84;;;30.03;53.38
12624;BME280;6377;42.836;23.998;2023-06-24T08:50:50;95677.53;;;29.66;53.73
12624;BME280;6377;42.836;23.998;2023-06-24T08:53:18;95680.16;;;29.89;52.24
12624;BME280;6377;42.836;23.998;2023-06-24T08:55:49;95675.53;;;30.04;53.53
12624;BME280;6377;42.836;23.998;2023-06-24T08:58:19;95676.56;;;30.08;52.97
12624;BME280;6377;42.836;23.998;2023-06-24T09:00:46;95676.22;;;29.82;53.00
12624;BME280;6377;42.836;23.998;2023-06-24T09:03:14;95672.28;;;29.88;52.39
12624;BME280;6377;42.836;23.998;2023-06-24T09:05:41;95664.38;;;29.86;52.55
12624;BME280;6377;42.836;23.998;2023-06-24T09:08:09;95666.63;;;29.98;51.88
12624;BME280;6377;42.836;23.998;2023-06-24T09:10:37;95662.69;;;30.04;50.75
12624;BME280;6377;42.836;23.998;2023-06-24T09:13:07;95642.91;;;29.98;51.72
12624;BME280;6377;42.836;23.998;2023-06-24T09:15:34;95651.41;;;30.24;51.44
12624;BME280;6377;42.836;23.998;2023-06-24T09:18:03;95655.34;;;30.32;52.09
12624;BME280;6377;42.836;23.998;2023-06-24T09:20:31;95651.22;;;30.34;49.13
12624;BME280;6377;42.836;23.998;2023-06-24T09:22:59;95648.91;;;30.41;48.12
12624;BME280;6377;42.836;23.998;2023-06-24T09:25:26;95649.13;;;30.59;48.74
12624;BME280;6377;42.836;23.998;2023-06-24T09:27:54;95634.13;;;30.56;48.89
12624;BME280;6377;42.836;23.998;2023-06-24T09:30:23;95632.09;;;30.75;48.90
12624;BME280;6377;42.836;23.998;2023-06-24T09:32:51;95654.19;;;31.15;47.44
12624;BME280;6377;42.836;23.998;2023-06-24T09:35:20;95654.31;;;31.32;47.06
12624;BME280;6377;42.836;23.998;2023-06-24T09:37:51;95648.19;;;31.26;46.15
12624;BME280;6377;42.836;23.998;2023-06-24T09:40:18;95653.66;;;31.13;46.15
12624;BME280;6377;42.836;23.998;2023-06-24T09:42:50;95657.41;;;31.39;45.25
12624;BME280;6377;42.836;23.998;2023-06-24T09:45:24;95657.94;;;31.41;43.72
12624;BME280;6377;42.836;23.998;2023-06-24T09:47:52;95653.38;;;31.36;46.17
12624;BME280;6377;42.836;23.998;2023-06-24T09:50:19;95613.28;;;31.23;46.56
12624;BME280;6377;42.836;23.998;2023-06-24T09:52:48;95661.78;;;31.40;46.71
12624;BME280;6377;42.836;23.998;2023-06-24T09:55:16;95664.44;;;31.67;47.34
12624;BME280;6377;42.836;23.998;2023-06-24T09:57:45;95641.06;;;31.61;46.41
12624;BME280;6377;42.836;23.998;2023-06-24T10:00:16;95667.56;;;31.83;45.47
12624;BME280;6377;42.836;23.998;2023-06-24T10:02:47;95665.81;;;31.87;44.34
12624;BME280;6377;42.836;23.998;2023-06-24T10:05:15;95669.97;;;32.06;44.47
12624;BME280;6377;42.836;23.998;2023-06-24T10:07:42;95664.94;;;32.31;46.20
12624;BME280;6377;42.836;23.998;2023-06-24T10:10:10;95660.81;;;32.42;45.26
12624;BME280;6377;42.836;23.998;2023-06-24T10:12:37;95651.66;;;32.46;45.19
12624;BME280;6377;42.836;23.998;2023-06-24T10:15:06;95661.00;;;32.54;44.97
12624;BME280;6377;42.836;23.998;2023-06-24T10:17:33;95661.41;;;32.69;44.79
12624;BME280;6377;42.836;23.998;2023-06-24T10:20:05;95654.69;;;32.84;44.19
12624;BME280;6377;42.836;23.998;2023-06-24T10:22:33;95650.66;;;32.90;44.28
12624;BME280;6377;42.836;23.998;2023-06-24T10:25:02;95615.44;;;32.49;45.34
12624;BME280;6377;42.836;23.998;2023-06-24T10:27:38;95644.13;;;33.17;44.24
12624;BME280;6377;42.836;23.998;2023-06-24T10:30:08;95638.78;;;33.29;43.84
12624;BME280;6377;42.836;23.998;2023-06-24T10:32:44;95650.06;;;33.62;43.76
12624;BME280;6377;42.836;23.998;2023-06-24T10:35:23;95638.41;;;33.99;43.20
12624;BME280;6377;42.836;23.998;2023-06-24T10:37:55;95633.53;;;34.13;43.06
12624;BME280;6377;42.836;23.998;2023-06-24T10:40:43;95627.03;;;34.56;42.49
12624;BME280;6377;42.836;23.998;2023-06-24T10:43:27;95627.84;;;34.85;40.83
12624;BME280;6377;42.836;23.998;2023-06-24T10:45:55;95601.06;;;35.03;40.61
12624;BME280;6377;42.836;23.998;2023-06-24T10:48:23;95616.44;;;35.25;40.97
12624;BME280;6377;42.836;23.998;2023-06-24T10:50:52;95614.22;;;35.18;40.27
12624;BME280;6377;42.836;23.998;2023-06-24T10:53:19;95605.16;;;35.59;41.15
12624;BME280;6377;42.836;23.998;2023-06-24T10:55:46;95599.47;;;35.76;41.05
12624;BME280;6377;42.836;23.998;2023-06-24T10:58:14;95597.97;;;35.67;40.44
12624;BME280;6377;42.836;23.998;2023-06-24T11:00:42;95579.34;;;35.31;40.90
12624;BME280;6377;42.836;23.998;2023-06-24T11:03:12;95577.06;;;35.12;41.32
12624;BME280;6377;42.836;23.998;2023-06-24T11:05:40;95576.38;;;35.36;41.42
12624;BME280;6377;42.836;23.998;2023-06-24T11:08:09;95541.44;;;35.36;40.79
12624;BME280;6377;42.836;23.998;2023-06-24T11:10:43;95576.00;;;35.58;40.27
12624;BME280;6377;42.836;23.998;2023-06-24T11:13:11;95572.50;;;35.70;40.88
12624;BME280;6377;42.836;23.998;2023-06-24T11:15:39;95537.00;;;34.61;41.50
12624;BME280;6377;42.836;23.998;2023-06-24T11:18:08;95569.25;;;35.35;40.59
12624;BME280;6377;42.836;23.998;2023-06-24T11:20:37;95580.13;;;35.52;39.45
12624;BME280;6377;42.836;23.998;2023-06-24T11:23:07;95568.03;;;35.65;39.74
12624;BME280;6377;42.836;23.998;2023-06-24T11:25:40;95564.47;;;35.65;40.40
12624;BME280;6377;42.836;23.998;2023-06-24T11:28:16;95569.88;;;35.73;40.13
12624;BME280;6377;42.836;23.998;2023-06-24T11:30:43;95574.28;;;34.71;41.32
12624;BME280;6377;42.836;23.998;2023-06-24T11:33:11;95550.09;;;34.64;41.59
12624;BME280;6377;42.836;23.998;2023-06-24T11:35:38;95565.97;;;35.00;41.45
12624;BME280;6377;42.836;23.998;2023-06-24T11:38:05;95574.94;;;34.68;41.52
12624;BME280;6377;42.836;23.998;2023-06-24T11:40:34;95565.13;;;34.87;41.45
12624;BME280;6377;42.836;23.998;2023-06-24T11:43:03;95565.59;;;35.31;40.50
12624;BME280;6377;42.836;23.998;2023-06-24T11:45:31;95559.75;;;34.70;41.22
12624;BME280;6377;42.836;23.998;2023-06-24T11:48:03;95524.50;;;35.14;40.82
12624;BME280;6377;42.836;23.998;2023-06-24T11:50:35;95468.28;;;35.03;40.45
12624;BME280;6377;42.836;23.998;2023-06-24T11:53:03;95560.22;;;35.34;39.83
12624;BME280;6377;42.836;23.998;2023-06-24T11:55:31;95560.72;;;35.49;40.40
12624;BME280;6377;42.836;23.998;2023-06-24T11:57:59;95556.94;;;34.79;40.93
12624;BME280;6377;42.836;23.998;2023-06-24T12:00:30;95556.41;;;34.56;41.51
12624;BME280;6377;42.836;23.998;2023-06-24T12:02:59;95525.66;;;34.13;41.57
12624;BME280;6377;42.836;23.998;2023-06-24T12:05:29;95528.63;;;33.99;41.98
12624;BME280;6377;42.836;23.998;2023-06-24T12:07:57;95548.38;;;33.84;42.27
12624;BME280;6377;42.836;23.998;2023-06-24T12:10:25;95553.69;;;33.80;42.23
12624;BME280;6377;42.836;23.998;2023-06-24T12:12:52;95559.06;;;33.68;42.20
12624;BME280;6377;42.836;23.998;2023-06-24T12:15:19;95545.09;;;33.27;43.32
12624;BME280;6377;42.836;23.998;2023-06-24T12:17:48;95537.84;;;33.05;43.58
12624;BME280;6377;42.836;23.998;2023-06-24T12:20:15;95522.19;;;32.89;44.18
12624;BME280;6377;42.836;23.998;2023-06-24T12:22:44;95539.16;;;32.91;44.25
12624;BME280;6377;42.836;23.998;2023-06-24T12:25:11;95554.78;;;32.82;45.15
12624;BME280;6377;42.836;23.998;2023-06-24T12:27:38;95559.22;;;32.52;46.63
12624;BME280;6377;42.836;23.998;2023-06-24T12:30:08;95562.06;;;32.38;46.25
12624;BME280;6377;42.836;23.998;2023-06-24T12:32:35;95555.09;;;32.24;47.28
12624;BME280;6377;42.836;23.998;2023-06-24T12:35:05;95550.25;;;32.12;48.62
12624;BME280;6377;42.836;23.998;2023-06-24T12:37:34;95547.47;;;32.03;50.28
12624;BME280;6377;42.836;23.998;2023-06-24T12:40:02;95557.53;;;31.86;49.84
12624;BME280;6377;42.836;23.998;2023-06-24T12:42:29;95534.28;;;31.66;50.66
12624;BME280;6377;42.836;23.998;2023-06-24T12:44:56;95541.25;;;31.50;50.58
12624;BME280;6377;42.836;23.998;2023-06-24T12:47:24;95547.16;;;31.43;50.97
12624;BME280;6377;42.836;23.998;2023-06-24T12:49:51;95552.69;;;31.30;51.41
12624;BME280;6377;42.836;23.998;2023-06-24T12:52:20;95557.97;;;31.04;54.25
12624;BME280;6377;42.836;23.998;2023-06-24T12:54:47;95542.03;;;30.62;58.15
12624;BME280;6377;42.836;23.998;2023-06-24T12:57:15;95547.94;;;30.14;67.48
12624;BME280;6377;42.836;23.998;2023-06-24T12:59:42;95554.31;;;29.82;73.29
12624;BME280;6377;42.836;23.998;2023-06-24T13:02:09;95553.94;;;29.57;76.45